Time;durP1;ratioP1;P1;durP2;ratioP2;P2;SDS_P1;SDS_P2;PMS_P1;PMS_P2;Temp;Humidity;BMP_temperature;BMP_pressure;BME280_temperature;BME280_humidity;BME280_pressure;Samples;Min_cycle;Max_cycle;Signal;HPM_P1;HPM_P2
2022/02/16 00:00:16;;;;;;;20.57;16.03;;;;;;;12.86;68.45;101759.19;5054203;28;20073;-79
2022/02/16 00:02:43;;;;;;;19.17;16.03;;;;;;;12.92;68.49;101766.50;5051011;28;20136;-80
2022/02/16 00:05:11;;;;;;;19.40;15.60;;;;;;;12.92;68.54;101781.38;5043820;28;20049;-81
2022/02/16 00:07:43;;;;;;;21.20;17.23;;;;;;;12.71;68.34;101748.66;5057592;28;20048;-83
2022/02/16 00:10:12;;;;;;;18.50;16.47;;;;;;;12.90;68.37;101780.78;5047715;28;20045;-83
2022/02/16 00:12:39;;;;;;;29.73;16.57;;;;;;;12.84;68.65;101776.25;5049564;28;20052;-79
2022/02/16 00:15:08;;;;;;;19.93;16.17;;;;;;;12.77;68.87;101786.84;5045412;28;20072;-78
2022/02/16 00:17:36;;;;;;;21.70;16.90;;;;;;;12.66;69.02;101785.88;5046547;28;20084;-79
2022/02/16 00:20:05;;;;;;;19.20;16.43;;;;;;;12.43;69.35;101767.44;5043894;28;20581;-78
2022/02/16 00:22:32;;;;;;;20.23;17.10;;;;;;;12.48;69.36;101781.50;5048657;28;20525;-78
2022/02/16 00:24:58;;;;;;;29.27;18.50;;;;;;;12.51;69.35;101789.38;5048155;28;20053;-85
2022/02/16 00:27:25;;;;;;;21.13;15.60;;;;;;;12.44;69.43;101788.72;5047732;28;20092;-84
2022/02/16 00:29:52;;;;;;;28.07;19.07;;;;;;;12.37;69.62;101776.88;5047379;28;20145;-78
2022/02/16 00:32:19;;;;;;;26.70;18.13;;;;;;;12.19;69.95;101754.81;5044848;28;20552;-75
2022/02/16 00:34:46;;;;;;;25.73;16.63;;;;;;;12.21;69.84;101753.47;5046176;28;20127;-76
2022/02/16 00:37:13;;;;;;;25.20;18.37;;;;;;;12.32;70.04;101768.44;5043365;28;20132;-75
2022/02/16 00:39:41;;;;;;;21.30;17.07;;;;;;;12.34;70.07;101777.41;5041963;28;20077;-74
2022/02/16 00:42:08;;;;;;;19.23;15.93;;;;;;;11.87;69.74;101681.94;5046319;28;20060;-75
2022/02/16 00:44:34;;;;;;;23.33;16.30;;;;;;;12.38;70.21;101769.34;5045192;28;20556;-76
2022/02/16 00:47:02;;;;;;;26.57;16.50;;;;;;;12.47;69.52;101781.75;5048990;28;20141;-77
2022/02/16 00:49:29;;;;;;;21.07;18.03;;;;;;;12.16;69.82;101730.16;5050376;28;20076;-79
2022/02/16 00:51:55;;;;;;;26.30;16.30;;;;;;;12.28;69.87;101748.50;5045714;28;20484;-78
2022/02/16 00:54:22;;;;;;;26.73;16.97;;;;;;;12.47;70.08;101778.94;5046536;28;20503;-90
2022/02/16 00:56:49;;;;;;;19.83;15.37;;;;;;;12.19;69.98;101747.28;5063342;28;20076;-95
2022/02/16 00:59:16;;;;;;;20.43;16.00;;;;;;;11.99;70.09;101714.28;5049881;28;20080;-80
2022/02/16 01:01:43;;;;;;;26.93;17.53;;;;;;;12.45;70.11;101796.03;5044597;28;20123;-77
2022/02/16 01:04:10;;;;;;;23.50;16.77;;;;;;;12.47;70.08;101798.56;5044208;28;20081;-75
2022/02/16 01:06:36;;;;;;;20.83;16.23;;;;;;;12.42;70.23;101790.97;5046188;28;20502;-75
2022/02/16 01:09:03;;;;;;;17.27;14.67;;;;;;;12.18;70.39;101755.94;5047034;28;20135;-81
2022/02/16 01:11:30;;;;;;;20.53;16.23;;;;;;;12.32;70.59;101776.84;5045502;28;20044;-82
2022/02/16 01:13:57;;;;;;;20.53;15.20;;;;;;;12.20;70.70;101765.75;5056066;28;20059;-79
2022/02/16 01:16:24;;;;;;;25.70;17.33;;;;;;;12.31;70.88;101794.75;5076510;28;20044;-79
2022/02/16 01:18:50;;;;;;;14.13;12.97;;;;;;;12.29;70.96;101794.16;5066872;28;20041;-78
2022/02/16 01:21:17;;;;;;;18.97;17.10;;;;;;;12.19;70.96;101775.28;5075473;28;20036;-90
2022/02/16 01:23:44;;;;;;;16.67;14.97;;;;;;;12.33;70.68;101787.75;5061858;28;20466;-89
2022/02/16 01:26:12;;;;;;;19.40;16.83;;;;;;;12.03;70.84;101743.47;5052889;28;20068;-89
2022/02/16 01:28:39;;;;;;;18.63;16.63;;;;;;;12.33;70.79;101787.75;5052513;28;20117;-90
2022/02/16 01:31:05;;;;;;;15.83;14.47;;;;;;;12.36;70.53;101788.34;5050124;28;20080;-93
2022/02/16 01:33:32;;;;;;;19.30;16.43;;;;;;;12.16;70.71;101758.16;5053181;28;20551;-89
2022/02/16 01:36:00;;;;;;;19.97;16.77;;;;;;;12.37;70.65;101792.84;5049580;28;20048;-89
2022/02/16 01:38:27;;;;;;;20.77;18.63;;;;;;;12.37;70.63;101790.88;5061201;28;20037;-87
2022/02/16 01:40:54;;;;;;;22.10;17.40;;;;;;;12.07;70.84;101739.03;5070703;28;20053;-87
2022/02/16 01:43:22;;;;;;;23.20;18.67;;;;;;;12.34;70.65;101788.59;5063703;28;20083;-86
2022/02/16 01:45:49;;;;;;;23.63;17.83;;;;;;;12.23;70.71;101776.44;5063649;28;20111;-82
2022/02/16 01:48:16;;;;;;;23.40;18.27;;;;;;;12.35;70.47;101787.50;5053316;28;20081;-82
2022/02/16 01:50:43;;;;;;;22.77;18.00;;;;;;;12.14;70.54;101760.38;5048748;28;20132;-81
2022/02/16 01:53:11;;;;;;;25.67;18.53;;;;;;;12.35;70.54;101779.13;5049386;28;20095;-81
2022/02/16 01:55:38;;;;;;;26.90;20.43;;;;;;;12.52;70.22;101791.06;5052278;28;20135;-82
2022/02/16 01:58:07;;;;;;;23.07;18.33;;;;;;;12.60;70.01;101780.50;5052641;28;20830;-81
2022/02/16 02:00:33;;;;;;;26.17;18.57;;;;;;;12.66;70.09;101779.44;5047826;28;20072;-79
2022/02/16 02:03:00;;;;;;;32.43;19.67;;;;;;;12.71;70.08;101776.69;5049878;28;20049;-80
2022/02/16 02:05:29;;;;;;;29.97;20.53;;;;;;;12.49;70.13;101734.72;5049031;28;20056;-80
2022/02/16 02:07:55;;;;;;;26.33;19.63;;;;;;;12.67;69.97;101753.09;5048905;28;20147;-80
2022/02/16 02:10:22;;;;;;;30.70;17.50;;;;;;;12.69;70.13;101768.53;5050460;28;20088;-80
2022/02/16 02:12:53;;;;;;;20.37;18.20;;;;;;;12.69;70.14;101776.13;5047567;28;20140;-81
2022/02/16 02:15:22;;;;;;;26.47;19.37;;;;;;;12.72;70.23;101775.59;5050081;28;20135;-78
2022/02/16 02:17:49;;;;;;;24.83;19.77;;;;;;;12.69;70.10;101762.09;5048298;28;20084;-77
2022/02/16 02:20:24;;;;;;;29.37;19.67;;;;;;;12.78;69.94;101774.50;5047278;28;20149;-77
2022/02/16 02:22:52;;;;;;;22.47;16.13;;;;;;;12.74;70.19;101788.19;5047947;28;20100;-77
2022/02/16 02:25:20;;;;;;;20.03;17.03;;;;;;;12.63;70.24;101754.75;5054020;28;20574;-81
2022/02/16 02:27:48;;;;;;;18.17;16.27;;;;;;;12.82;70.47;101778.50;5046005;28;20517;-74
2022/02/16 02:30:15;;;;;;;17.80;15.47;;;;;;;12.78;70.12;101768.91;5047460;28;20099;-74
2022/02/16 02:32:44;;;;;;;18.00;15.67;;;;;;;12.82;70.47;101761.66;5045113;28;20053;-77
2022/02/16 02:35:14;;;;;;;28.53;16.80;;;;;;;12.89;70.28;101762.28;5045485;28;20454;-78
2022/02/16 02:37:42;;;;;;;17.08;15.63;;;;;;;12.80;70.03;101747.06;5053602;28;20114;-77
2022/02/16 02:40:10;;;;;;;18.10;15.67;;;;;;;12.96;70.26;101774.13;5047970;28;20064;-76
2022/02/16 02:42:38;;;;;;;23.77;15.70;;;;;;;12.87;70.35;101770.13;5049542;28;20128;-77
2022/02/16 02:45:06;;;;;;;17.73;15.90;;;;;;;12.87;70.53;101775.72;5048139;28;20555;-74
2022/02/16 02:47:33;;;;;;;19.30;14.57;;;;;;;12.87;70.50;101784.13;5047793;28;20080;-75
2022/02/16 02:50:00;;;;;;;16.90;13.93;;;;;;;12.66;70.85;101743.00;5051176;28;20087;-76
2022/02/16 02:52:28;;;;;;;21.10;14.40;;;;;;;12.78;70.53;101769.75;5046416;28;20092;-74
2022/02/16 02:54:55;;;;;;;19.47;15.83;;;;;;;12.67;70.56;101753.09;5044517;28;20054;-74
2022/02/16 02:57:22;;;;;;;19.97;13.33;;;;;;;12.79;70.81;101781.81;5045213;28;20136;-74
2022/02/16 02:59:49;;;;;;;18.17;14.97;;;;;;;12.77;70.62;101770.84;5049798;28;20132;-74
2022/02/16 03:02:15;;;;;;;22.07;15.47;;;;;;;12.77;70.67;101768.06;5047261;28;20091;-74
2022/02/16 03:04:42;;;;;;;18.97;14.20;;;;;;;12.78;70.89;101769.75;5050221;28;20049;-75
2022/02/16 03:07:09;;;;;;;17.40;13.40;;;;;;;12.62;71.05;101750.25;5043736;28;20119;-75
2022/02/16 03:09:36;;;;;;;16.53;13.57;;;;;;;12.82;70.87;101778.50;5057558;28;20542;-74
2022/02/16 03:12:03;;;;;;;14.70;13.27;;;;;;;12.86;70.83;101768.44;5048949;28;20072;-73
2022/02/16 03:14:30;;;;;;;14.30;12.87;;;;;;;12.84;70.77;101762.22;5048430;28;20127;-72
2022/02/16 03:16:56;;;;;;;14.77;13.47;;;;;;;12.84;70.83;101765.03;5048100;28;20136;-77
2022/02/16 03:19:23;;;;;;;15.47;13.97;;;;;;;12.88;70.80;101768.16;5049713;28;20136;-79
2022/02/16 03:21:53;;;;;;;17.45;13.35;;;;;;;12.87;70.94;101764.50;5053498;28;20059;-80
2022/02/16 03:24:19;;;;;;;15.13;13.17;;;;;;;12.84;70.89;101756.63;5049884;28;20087;-80
2022/02/16 03:26:46;;;;;;;17.63;13.00;;;;;;;12.89;70.95;101753.00;5048707;28;20081;-81
2022/02/16 03:29:13;;;;;;;14.67;13.17;;;;;;;12.73;70.82;101724.00;5048098;28;20132;-79
2022/02/16 03:31:42;;;;;;;14.23;12.77;;;;;;;12.87;70.84;101753.28;5050880;28;20136;-78
2022/02/16 03:34:09;;;;;;;12.87;11.60;;;;;;;12.87;70.97;101756.09;5044510;28;20561;-79
2022/02/16 03:36:36;;;;;;;16.20;11.87;;;;;;;12.89;70.94;101751.09;5049804;28;20140;-81
2022/02/16 03:39:03;;;;;;;12.80;11.57;;;;;;;12.88;71.01;101749.38;5049461;28;20540;-81
2022/02/16 03:41:29;;;;;;;13.17;11.77;;;;;;;12.88;71.07;101752.16;5047898;28;20076;-75
2022/02/16 03:43:56;;;;;;;15.50;12.53;;;;;;;12.66;70.87;101714.97;5050985;28;20087;-75
2022/02/16 03:46:23;;;;;;;13.53;12.23;;;;;;;12.84;71.15;101747.38;5046599;28;20055;-72
2022/02/16 03:48:50;;;;;;;22.17;12.07;;;;;;;12.86;71.19;101757.22;5068172;28;20063;-75
2022/02/16 03:51:17;;;;;;;14.77;11.60;;;;;;;12.88;71.16;101757.78;5071125;28;20048;-81
2022/02/16 03:53:44;;;;;;;21.03;12.00;;;;;;;12.76;71.36;101741.16;5074779;28;20032;-85
2022/02/16 03:56:11;;;;;;;13.03;11.63;;;;;;;12.61;70.89;101714.91;5070284;28;20053;-81
2022/02/16 03:58:38;;;;;;;13.73;12.33;;;;;;;12.85;70.97;101746.25;5050414;28;20131;-74
2022/02/16 04:01:05;;;;;;;16.50;12.13;;;;;;;12.92;70.91;101760.88;5052898;28;20439;-74
2022/02/16 04:03:32;;;;;;;15.40;11.80;;;;;;;12.85;71.02;101749.91;5051869;28;20411;-74
2022/02/16 04:05:59;;;;;;;21.50;12.83;;;;;;;12.89;71.01;101755.81;5050286;28;20157;-75
2022/02/16 04:08:26;;;;;;;13.67;10.87;;;;;;;12.93;70.76;101757.84;5048995;28;20132;-76
2022/02/16 04:10:52;;;;;;;12.57;11.33;;;;;;;12.85;71.33;101757.47;5047667;28;20123;-79
2022/02/16 04:13:20;;;;;;;12.97;10.10;;;;;;;12.78;71.24;101752.91;5049884;28;20135;-78
2022/02/16 04:15:47;;;;;;;19.17;13.37;;;;;;;12.84;71.15;101758.59;5044394;28;20144;-75
2022/02/16 04:18:14;;;;;;;18.43;14.00;;;;;;;12.52;71.21;101725.78;5046380;28;20554;-75
2022/02/16 04:20:41;;;;;;;15.77;14.23;;;;;;;12.54;71.28;101715.97;5048060;28;20048;-75
2022/02/16 04:23:09;;;;;;;16.17;14.53;;;;;;;12.49;71.31;101721.56;5037133;28;20073;-76
2022/02/16 04:25:36;;;;;;;16.80;15.33;;;;;;;12.53;71.71;101747.09;5047071;28;20482;-80
2022/02/16 04:28:04;;;;;;;14.83;13.70;;;;;;;12.21;71.93;101716.22;5047803;28;20183;-81
2022/02/16 04:30:32;;;;;;;19.13;16.63;;;;;;;12.24;72.15;101718.47;5050157;28;20527;-88
2022/02/16 04:32:59;;;;;;;18.83;15.67;;;;;;;12.49;71.79;101752.38;5054769;28;20140;-85
2022/02/16 04:35:26;;;;;;;21.60;16.63;;;;;;;12.57;71.55;101759.44;5048662;28;20137;-82
2022/02/16 04:37:53;;;;;;;18.20;14.63;;;;;;;12.61;71.49;101754.16;5047681;28;20073;-92
2022/02/16 04:40:20;;;;;;;15.73;14.40;;;;;;;12.61;71.66;101755.00;5045904;28;20140;-86
2022/02/16 04:42:47;;;;;;;16.47;14.80;;;;;;;12.47;71.85;101748.13;5025989;28;20140;-84
2022/02/16 04:45:14;;;;;;;19.27;14.37;;;;;;;12.60;71.94;101763.69;5048881;28;20076;-83
2022/02/16 04:47:41;;;;;;;16.03;13.83;;;;;;;12.55;71.66;101756.06;5048563;28;20076;-84
2022/02/16 04:50:09;;;;;;;18.90;15.17;;;;;;;12.58;71.74;101761.16;5044549;28;20512;-77
2022/02/16 04:52:37;;;;;;;15.93;14.00;;;;;;;12.57;71.95;101771.50;5042589;28;20077;-76
2022/02/16 04:55:06;;;;;;;19.73;14.60;;;;;;;12.54;72.12;101763.63;5050858;28;20064;-76
2022/02/16 04:57:33;;;;;;;19.70;15.17;;;;;;;12.61;71.79;101765.38;5047877;28;20119;-74
2022/02/16 05:00:01;;;;;;;20.30;15.37;;;;;;;12.64;71.42;101771.28;5042165;28;20128;-75
2022/02/16 05:02:29;;;;;;;15.50;14.07;;;;;;;12.52;71.71;101746.25;5046325;28;20128;-83
2022/02/16 05:04:56;;;;;;;14.97;13.47;;;;;;;12.65;72.00;101766.53;5048523;28;20136;-80
2022/02/16 05:07:23;;;;;;;17.33;13.93;;;;;;;12.39;72.04;101729.84;5047026;28;20077;-78
2022/02/16 05:09:50;;;;;;;17.23;12.33;;;;;;;12.56;71.83;101747.41;5045522;28;20127;-79
2022/02/16 05:12:17;;;;;;;13.07;11.57;;;;;;;12.69;72.11;101762.09;5045492;28;20175;-80
2022/02/16 05:14:44;;;;;;;17.47;11.47;;;;;;;12.76;72.05;101771.97;5047592;28;20132;-79
2022/02/16 05:17:10;;;;;;;12.20;11.00;;;;;;;12.64;72.10;101742.41;5043062;28;20464;-79
2022/02/16 05:19:37;;;;;;;12.60;11.07;;;;;;;12.49;72.24;101718.75;5045266;28;20155;-79
2022/02/16 05:22:05;;;;;;;11.07;9.50;;;;;;;12.88;71.98;101768.16;5047249;28;20405;-73
2022/02/16 05:24:32;;;;;;;11.57;10.47;;;;;;;12.90;72.08;101772.38;5051917;28;20049;-73
2022/02/16 05:27:00;;;;;;;12.40;10.67;;;;;;;12.80;72.00;101738.66;5045233;28;20084;-74
2022/02/16 05:29:27;;;;;;;10.90;9.70;;;;;;;13.01;71.97;101771.34;5049879;28;20084;-83
2022/02/16 05:31:54;;;;;;;11.17;9.97;;;;;;;13.02;72.00;101770.25;5050878;28;20080;-84
2022/02/16 05:34:21;;;;;;;10.73;9.63;;;;;;;13.00;72.00;101769.66;5050094;28;20077;-84
2022/02/16 05:36:48;;;;;;;10.37;9.27;;;;;;;12.99;72.02;101762.38;5047998;28;20080;-81
2022/02/16 05:39:15;;;;;;;9.77;8.80;;;;;;;12.98;71.96;101766.28;5051478;28;20148;-81
2022/02/16 05:41:42;;;;;;;13.30;10.13;;;;;;;12.61;71.99;101693.34;5052155;28;20084;-81
2022/02/16 05:44:08;;;;;;;11.30;10.17;;;;;;;13.07;71.88;101760.19;5045637;28;20070;-82
2022/02/16 05:46:35;;;;;;;10.10;9.30;;;;;;;12.96;71.86;101745.25;5051119;28;20044;-83
2022/02/16 05:49:08;;;;;;;12.93;9.00;;;;;;;13.10;71.81;101757.69;5051070;28;20052;-82
2022/02/16 05:51:36;;;;;;;12.63;10.07;;;;;;;13.14;71.91;101763.63;5051395;28;20076;-82
2022/02/16 05:54:04;;;;;;;10.03;9.03;;;;;;;13.14;71.78;101764.47;5048066;28;20488;-75
2022/02/16 05:56:32;;;;;;;10.43;9.40;;;;;;;13.15;71.74;101762.50;5044124;28;20093;-77
2022/02/16 05:58:59;;;;;;;11.37;8.43;;;;;;;13.18;71.76;101774.03;5044563;28;20133;-77
2022/02/16 06:01:26;;;;;;;9.63;8.80;;;;;;;13.16;71.74;101767.84;5043277;28;20136;-77
2022/02/16 06:03:53;;;;;;;9.67;8.77;;;;;;;13.25;71.64;101779.44;5046903;28;20462;-76
2022/02/16 06:06:20;;;;;;;12.63;9.63;;;;;;;13.25;71.77;101776.63;5045484;28;20071;-76
2022/02/16 06:08:48;;;;;;;14.13;9.93;;;;;;;13.21;71.65;101767.88;5043321;28;20131;-75
2022/02/16 06:11:15;;;;;;;10.53;9.50;;;;;;;13.33;71.65;101787.34;5049216;28;20107;-77
2022/02/16 06:13:42;;;;;;;10.03;9.30;;;;;;;13.36;71.45;101784.00;5048381;28;20136;-83
2022/02/16 06:16:08;;;;;;;17.63;10.20;;;;;;;13.21;71.42;101747.41;5045076;28;20551;-79
2022/02/16 06:18:35;;;;;;;11.17;10.17;;;;;;;13.44;71.37;101785.47;5040714;28;20118;-80
2022/02/16 06:21:05;;;;;;;17.10;10.37;;;;;;;13.33;71.35;101770.50;5045045;28;20092;-71
2022/02/16 06:23:31;;;;;;;15.53;10.03;;;;;;;13.20;71.17;101754.97;5064710;28;20312;-72
2022/02/16 06:25:58;;;;;;;11.83;10.33;;;;;;;13.27;70.93;101771.59;5063427;28;20068;-75
2022/02/16 06:28:25;;;;;;;11.63;10.43;;;;;;;13.35;71.11;101781.47;5047829;28;20041;-74
2022/02/16 06:30:52;;;;;;;16.00;10.43;;;;;;;13.32;71.00;101782.84;5048326;28;20090;-76
2022/02/16 06:33:19;;;;;;;11.43;9.83;;;;;;;13.33;71.43;101790.16;5048483;28;20140;-77
2022/02/16 06:35:46;;;;;;;13.30;10.43;;;;;;;13.36;71.39;101800.84;5042018;28;20140;-75
2022/02/16 06:38:14;;;;;;;16.73;9.90;;;;;;;13.22;71.52;101777.13;5047188;28;20060;-75
2022/02/16 06:40:41;;;;;;;20.00;10.40;;;;;;;13.41;71.28;101809.31;5048121;28;20167;-75
2022/02/16 06:43:08;;;;;;;11.20;10.20;;;;;;;13.34;71.36;101796.63;5046795;28;20755;-74
2022/02/16 06:45:35;;;;;;;10.10;9.20;;;;;;;13.25;71.25;101776.63;5051737;28;20140;-74
2022/02/16 06:48:02;;;;;;;13.93;11.00;;;;;;;13.46;71.28;101803.72;5048492;28;20057;-75
2022/02/16 06:50:29;;;;;;;16.23;11.50;;;;;;;13.46;71.49;101809.31;5044475;28;20573;-75
2022/02/16 06:52:56;;;;;;;15.37;10.87;;;;;;;13.36;71.18;101791.56;5047208;28;20047;-75
2022/02/16 06:55:23;;;;;;;10.90;10.03;;;;;;;13.46;71.40;101814.94;5046130;28;20076;-75
2022/02/16 06:57:51;;;;;;;17.37;12.40;;;;;;;13.21;71.48;101776.28;5048012;28;20491;-75
2022/02/16 07:00:18;;;;;;;11.73;10.73;;;;;;;13.45;71.27;101815.22;5043891;28;20168;-75
2022/02/16 07:02:46;;;;;;;11.90;10.27;;;;;;;13.43;71.59;101807.06;5047917;28;20139;-75
2022/02/16 07:05:13;;;;;;;12.57;11.40;;;;;;;13.46;71.47;101814.94;5051440;28;20085;-74
2022/02/16 07:07:40;;;;;;;23.07;13.37;;;;;;;13.42;71.31;101811.00;5052606;28;20079;-74
2022/02/16 07:10:09;;;;;;;13.23;11.13;;;;;;;13.35;71.49;101810.38;5048790;28;20139;-75
2022/02/16 07:12:36;;;;;;;14.67;13.00;;;;;;;13.33;71.44;101812.59;5050900;28;20135;-76
2022/02/16 07:15:10;;;;;;;14.93;10.73;;;;;;;13.21;71.56;101809.09;5043850;28;20164;-75
2022/02/16 07:17:41;;;;;;;13.80;11.47;;;;;;;13.19;71.81;101811.31;5046622;28;20103;-75
2022/02/16 07:20:13;;;;;;;19.13;12.10;;;;;;;13.22;71.50;101822.00;5040648;28;20118;-75
2022/02/16 07:22:45;;;;;;;18.23;13.20;;;;;;;13.20;71.59;101813.88;5049230;28;20107;-75
2022/02/16 07:25:13;;;;;;;14.50;12.67;;;;;;;13.18;71.61;101823.66;5054278;28;20495;-74
2022/02/16 07:28:00;;;;;;;16.37;12.30;;;;;;;13.10;71.76;101829.78;5053136;28;20183;-73
2022/02/16 07:30:27;;;;;;;16.43;11.67;;;;;;;13.10;71.85;101829.78;5064001;28;20068;-74
2022/02/16 07:32:54;;;;;;;15.07;12.27;;;;;;;13.13;71.74;101820.81;5073531;28;20072;-72
2022/02/16 07:35:21;;;;;;;13.10;11.80;;;;;;;13.07;71.90;101819.09;5075020;28;20044;-72
2022/02/16 07:37:50;;;;;;;17.07;13.13;;;;;;;13.10;72.02;101825.00;5071642;28;20041;-71
2022/02/16 07:40:17;;;;;;;21.10;14.03;;;;;;;13.02;72.24;101829.16;5065240;28;20053;-71
2022/02/16 07:42:44;;;;;;;16.33;14.83;;;;;;;12.56;72.37;101754.97;5067467;28;20048;-73
2022/02/16 07:45:11;;;;;;;15.17;12.43;;;;;;;12.99;72.43;101817.59;5071347;28;20035;-72
2022/02/16 07:47:38;;;;;;;19.63;12.90;;;;;;;12.95;72.67;101817.28;5068348;28;20037;-70
2022/02/16 07:50:05;;;;;;;12.00;11.07;;;;;;;12.89;72.93;101821.16;5070417;28;20083;-71
2022/02/16 07:52:38;;;;;;;14.15;12.73;;;;;;;12.90;72.64;101810.78;5043525;28;20083;-70
2022/02/16 07:55:05;;;;;;;17.93;12.47;;;;;;;12.93;72.82;101819.53;5056468;28;20057;-70
2022/02/16 07:57:33;;;;;;;14.50;12.53;;;;;;;12.97;72.72;101829.09;5050811;28;20446;-70
2022/02/16 08:00:00;;;;;;;13.87;12.57;;;;;;;12.97;72.61;101826.28;5052398;28;20127;-70
2022/02/16 08:02:27;;;;;;;15.23;13.63;;;;;;;12.98;72.59;101827.97;5050399;28;20132;-70
2022/02/16 08:04:54;;;;;;;14.77;13.13;;;;;;;13.00;72.92;101834.16;5044205;28;20567;-71
2022/02/16 08:07:23;;;;;;;15.73;13.50;;;;;;;13.05;72.75;101836.16;5047828;28;20138;-71
2022/02/16 08:09:50;;;;;;;17.23;14.60;;;;;;;12.69;72.52;101776.13;5051588;28;20219;-70
2022/02/16 08:12:16;;;;;;;13.50;12.17;;;;;;;12.89;72.55;101803.47;5049167;28;21878;-69
2022/02/16 08:14:44;;;;;;;13.00;10.70;;;;;;;13.10;72.66;101847.44;5046358;28;20080;-70
2022/02/16 08:17:10;;;;;;;14.73;10.67;;;;;;;12.63;72.65;101763.16;5046769;28;20049;-69
2022/02/16 08:19:37;;;;;;;11.90;10.77;;;;;;;13.15;72.84;101860.66;5051631;28;20469;-71
2022/02/16 08:22:05;;;;;;;12.13;10.93;;;;;;;13.20;72.61;101861.56;5050911;28;20084;-69
2022/02/16 08:24:32;;;;;;;11.30;10.30;;;;;;;13.27;72.40;101859.41;5045160;28;20095;-71
2022/02/16 08:27:00;;;;;;;12.63;11.43;;;;;;;13.33;72.44;101865.06;5047952;28;20127;-70
2022/02/16 08:29:27;;;;;;;12.60;11.00;;;;;;;13.34;72.44;101872.38;5046277;28;20134;-71
2022/02/16 08:31:55;;;;;;;13.70;11.03;;;;;;;13.38;72.54;101868.75;5046152;28;20049;-70
2022/02/16 08:34:22;;;;;;;13.10;10.43;;;;;;;13.38;72.46;101870.72;5048190;28;20488;-70
2022/02/16 08:36:55;;;;;;;13.53;10.57;;;;;;;13.43;72.47;101879.16;5040253;28;20551;-70
2022/02/16 08:39:25;;;;;;;15.17;11.37;;;;;;;13.52;72.50;101889.66;5045580;28;20059;-70
2022/02/16 08:41:53;;;;;;;11.68;10.63;;;;;;;13.39;72.64;101864.84;5046687;28;20136;-70
2022/02/16 08:44:19;;;;;;;13.37;12.27;;;;;;;13.40;72.57;101869.34;5047974;28;20575;-70
2022/02/16 08:46:47;;;;;;;10.97;9.90;;;;;;;13.55;72.78;101884.63;5050559;28;20052;-70
2022/02/16 08:49:31;;;;;;;15.30;10.47;;;;;;;13.55;72.47;101887.44;5062293;28;20052;-71
2022/02/16 08:52:03;;;;;;;13.83;12.57;;;;;;;13.71;72.29;101904.13;5048354;28;20045;-71
2022/02/16 08:54:30;;;;;;;12.30;10.50;;;;;;;13.66;72.38;101912.50;5045380;28;20091;-69
2022/02/16 08:56:57;;;;;;;12.60;11.60;;;;;;;13.63;72.33;101915.00;5053419;28;20109;-70
2022/02/16 08:59:24;;;;;;;14.43;12.00;;;;;;;13.57;72.54;101913.25;5074282;28;20059;-69
2022/02/16 09:01:54;;;;;;;14.38;13.00;;;;;;;13.54;72.54;101913.78;5060601;28;20049;-71
2022/02/16 09:04:21;;;;;;;13.80;12.70;;;;;;;13.47;72.82;101908.41;5049837;28;20492;-69
2022/02/16 09:09:37;;;;;;;14.67;13.40;;;;;;;13.11;73.25;101876.34;5047998;28;21812;-70
2022/02/16 09:12:05;;;;;;;14.65;13.30;;;;;;;12.90;73.13;101828.47;5046847;28;20045;-70
2022/02/16 09:14:32;;;;;;;15.17;14.17;;;;;;;13.37;72.79;101913.94;5047303;28;20139;-69
2022/02/16 09:17:00;;;;;;;16.43;15.20;;;;;;;13.37;73.13;101908.31;5052337;28;20131;-70
2022/02/16 09:19:26;;;;;;;20.70;18.80;;;;;;;13.35;73.17;101911.38;5051623;28;20127;-69
2022/02/16 09:21:53;;;;;;;17.50;15.97;;;;;;;13.34;73.32;101917.28;5041459;28;20132;-70
2022/02/16 09:24:20;;;;;;;17.33;15.90;;;;;;;13.10;73.46;101885.88;5049609;28;20128;-70
2022/02/16 09:26:50;;;;;;;17.53;16.00;;;;;;;13.15;73.63;101895.16;5061160;28;20060;-69
2022/02/16 09:29:22;;;;;;;18.27;16.80;;;;;;;13.30;73.58;101913.28;5058358;28;20041;-69
2022/02/16 09:31:52;;;;;;;18.53;16.93;;;;;;;13.26;73.82;101890.53;5055328;28;20045;-70
2022/02/16 09:34:19;;;;;;;19.70;18.50;;;;;;;13.22;73.77;101878.13;5059481;28;20071;-70
2022/02/16 09:36:46;;;;;;;18.57;17.30;;;;;;;13.37;73.79;101897.94;5057580;28;20041;-69
2022/02/16 09:39:13;;;;;;;20.13;18.13;;;;;;;13.22;73.95;101878.13;5053699;28;20116;-70
2022/02/16 09:41:44;;;;;;;19.00;17.60;;;;;;;13.30;74.14;101890.84;5055768;28;20052;-70
2022/02/16 09:44:18;;;;;;;18.17;16.80;;;;;;;13.43;74.16;101905.28;5054928;28;20042;-69
2022/02/16 09:46:45;;;;;;;18.30;17.03;;;;;;;13.44;74.25;101909.78;5056766;28;20056;-71
2022/02/16 09:49:12;;;;;;;18.10;16.73;;;;;;;13.27;74.44;101883.81;5055997;28;20489;-71
2022/02/16 09:51:40;;;;;;;18.57;17.33;;;;;;;13.31;75.21;101903.78;5050601;28;20107;-70
2022/02/16 09:54:07;;;;;;;19.20;17.50;;;;;;;13.26;75.79;101896.13;5047752;28;20136;-69
2022/02/16 09:56:34;;;;;;;19.17;17.80;;;;;;;13.45;76.29;101921.84;5050491;28;20080;-71
2022/02/16 09:59:02;;;;;;;20.50;18.83;;;;;;;13.43;76.74;101913.69;5052738;28;20461;-70
2022/02/16 10:01:29;;;;;;;20.03;18.30;;;;;;;13.49;77.05;101928.63;5052276;28;20077;-69
2022/02/16 10:04:04;;;;;;;21.50;19.37;;;;;;;13.48;77.33;101912.91;5048764;28;20484;-70
2022/02/16 10:06:38;;;;;;;21.80;20.10;;;;;;;13.54;77.86;101920.25;5047354;28;20149;-69
2022/02/16 10:09:06;;;;;;;20.80;18.97;;;;;;;13.57;77.96;101919.69;5053243;28;20251;-71
2022/02/16 10:11:34;;;;;;;17.90;16.63;;;;;;;13.43;78.26;101899.66;5049725;28;20076;-70
2022/02/16 10:14:16;;;;;;;17.67;16.30;;;;;;;13.57;78.53;101919.69;5051863;28;20056;-71
2022/02/16 10:16:43;;;;;;;18.70;17.13;;;;;;;13.45;78.58;101907.81;5051856;28;20471;-69
2022/02/16 10:19:10;;;;;;;18.80;17.40;;;;;;;13.41;78.81;101899.09;5044823;28;20139;-70
2022/02/16 10:21:38;;;;;;;18.20;16.50;;;;;;;13.45;78.77;101902.22;5045735;28;20139;-70
2022/02/16 10:24:20;;;;;;;18.37;16.70;;;;;;;13.67;79.25;101928.22;5045596;28;20118;-71
2022/02/16 10:26:51;;;;;;;23.87;16.47;;;;;;;13.69;79.19;101930.78;5054242;28;20480;-69
2022/02/16 10:29:30;;;;;;;17.73;16.33;;;;;;;13.72;79.20;101927.44;5048079;28;20559;-70
2022/02/16 10:31:58;;;;;;;17.20;16.00;;;;;;;13.62;79.20;101910.50;5052054;28;20073;-70
2022/02/16 10:34:47;;;;;;;17.87;16.27;;;;;;;13.78;79.39;101946.00;5048129;28;20132;-69
2022/02/16 10:37:16;;;;;;;18.53;16.80;;;;;;;13.72;79.57;101935.84;5045868;28;20148;-70
2022/02/16 10:40:12;;;;;;;18.60;16.80;;;;;;;13.75;79.92;101938.13;5043308;28;20052;-71
2022/02/16 10:42:55;;;;;;;19.00;17.30;;;;;;;13.82;79.86;101940.72;5052298;28;20076;-70
2022/02/16 10:45:28;;;;;;;20.60;18.47;;;;;;;13.80;79.72;101937.31;5042218;28;20056;-70
2022/02/16 10:48:04;;;;;;;18.87;16.93;;;;;;;13.80;79.80;101948.53;5049846;28;20048;-70
2022/02/16 10:50:34;;;;;;;21.70;19.40;;;;;;;13.82;79.97;101946.31;5043556;28;20067;-70
2022/02/16 10:53:03;;;;;;;25.63;18.10;;;;;;;13.87;80.07;101944.38;5045708;28;20132;-70
2022/02/16 10:55:48;;;;;;;18.10;16.40;;;;;;;13.88;80.44;101964.88;5047363;28;20144;-70
2022/02/16 10:58:25;;;;;;;24.27;17.17;;;;;;;13.90;80.52;101957.88;5044516;28;20462;-70
2022/02/16 11:00:54;;;;;;;20.23;17.70;;;;;;;13.89;80.24;101944.97;5048585;28;20098;-70
2022/02/16 11:03:29;;;;;;;17.08;15.82;;;;;;;13.81;80.81;101934.25;5042619;28;20057;-70
2022/02/16 11:05:58;;;;;;;18.53;16.60;;;;;;;14.00;80.59;101940.28;5046965;28;20459;-70
2022/02/16 11:08:27;;;;;;;18.37;16.53;;;;;;;14.20;80.61;101968.50;5051085;28;20136;-70
2022/02/16 11:11:17;;;;;;;21.40;16.93;;;;;;;14.25;80.67;101964.88;5042769;28;20049;-70
2022/02/16 11:13:51;;;;;;;18.87;16.83;;;;;;;14.45;80.73;101978.22;5046011;28;20045;-70
2022/02/16 11:16:21;;;;;;;17.50;15.90;;;;;;;14.27;80.82;101926.13;5047418;28;20451;-70